Time;durP1;ratioP1;P1;durP2;ratioP2;P2;SDS_P1;SDS_P2;PMS_P1;PMS_P2;Temp;Humidity;BMP_temperature;BMP_pressure;BME280_temperature;BME280_humidity;BME280_pressure;Samples;Min_cycle;Max_cycle;Signal;HPM_P1;HPM_P2
2022/04/13 00:02:17;;;;;;;14.02;6.55;;;;;;;;;;5023803;28;20241;-66
2022/04/13 00:04:42;;;;;;;9.23;5.75;;;;;;;;;;5020184;28;20602;-66
2022/04/13 00:07:08;;;;;;;8.90;5.55;;;;;;;;;;5019748;28;20193;-66
2022/04/13 00:09:34;;;;;;;9.27;5.43;;;;;;;;;;5028598;28;20571;-66
2022/04/13 00:12:00;;;;;;;10.25;6.22;;;;;;;;;;5012888;28;20219;-73
2022/04/13 00:14:25;;;;;;;9.88;5.45;;;;;;;;;;5020024;28;20276;-66
2022/04/13 00:16:51;;;;;;;9.05;5.88;;;;;;;;;;5019496;28;20513;-66
2022/04/13 00:19:17;;;;;;;10.10;5.80;;;;;;;;;;5017818;28;20202;-66
2022/04/13 00:21:43;;;;;;;9.70;5.40;;;;;;;;;;5019153;28;20190;-66
2022/04/13 00:24:08;;;;;;;8.75;4.97;;;;;;;;;;5024363;28;20525;-66
2022/04/13 00:26:34;;;;;;;10.73;5.40;;;;;;;;;;5025874;28;20672;-66
2022/04/13 00:28:59;;;;;;;9.77;5.35;;;;;;;;;;5016982;28;20182;-66
2022/04/13 00:31:24;;;;;;;11.23;5.80;;;;;;;;;;5024244;28;20209;-66
2022/04/13 00:33:50;;;;;;;10.88;5.00;;;;;;;;;;5022527;28;20586;-65
2022/04/13 00:36:15;;;;;;;10.82;5.00;;;;;;;;;;5016623;28;20508;-65
2022/04/13 00:38:40;;;;;;;12.32;5.35;;;;;;;;;;5024795;28;20503;-65
2022/04/13 00:41:06;;;;;;;7.20;5.32;;;;;;;;;;5026279;28;20561;-66
2022/04/13 00:43:31;;;;;;;9.32;5.30;;;;;;;;;;5023776;28;20189;-65
2022/04/13 00:45:56;;;;;;;9.27;5.10;;;;;;;;;;5013495;28;20190;-65
2022/04/13 00:48:31;;;;;;;8.98;5.47;;;;;;;;;;5026747;28;20548;-65
2022/04/13 00:50:56;;;;;;;13.50;5.60;;;;;;;;;;5022835;28;20177;-65
2022/04/13 00:53:26;;;;;;;7.93;5.30;;;;;;;;;;5016841;28;20712;-65
2022/04/13 00:55:55;;;;;;;7.80;3.90;;;;;;;;;;5021750;28;20678;-66
2022/04/13 00:58:27;;;;;;;13.00;5.18;;;;;;;;;;5017388;28;20678;-65
2022/04/13 01:00:53;;;;;;;7.90;5.30;;;;;;;;;;5020579;28;20664;-65
2022/04/13 01:03:22;;;;;;;11.63;5.75;;;;;;;;;;5022353;28;20178;-65
2022/04/13 01:05:48;;;;;;;15.77;6.00;;;;;;;;;;5020784;28;20526;-65
2022/04/13 01:08:15;;;;;;;9.90;4.93;;;;;;;;;;5020671;28;20277;-65
2022/04/13 01:10:41;;;;;;;11.73;5.50;;;;;;;;;;5025979;28;20316;-65
2022/04/13 01:13:07;;;;;;;13.32;5.60;;;;;;;;;;5020279;28;20209;-66
2022/04/13 01:15:33;;;;;;;10.45;5.82;;;;;;;;;;5021327;28;20230;-65
2022/04/13 01:17:58;;;;;;;11.18;6.57;;;;;;;;;;5021454;28;20233;-66
2022/04/13 01:20:24;;;;;;;15.55;6.13;;;;;;;;;;5020382;28;20580;-65
2022/04/13 01:22:49;;;;;;;8.43;5.80;;;;;;;;;;5021014;28;20194;-66
2022/04/13 01:25:14;;;;;;;11.52;6.22;;;;;;;;;;5017638;28;20487;-66
2022/04/13 01:27:40;;;;;;;11.07;5.82;;;;;;;;;;5027081;28;20584;-66
2022/04/13 01:30:07;;;;;;;13.85;5.90;;;;;;;;;;5023415;28;20677;-65
2022/04/13 01:32:33;;;;;;;15.30;5.93;;;;;;;;;;5011289;28;20275;-65
2022/04/13 01:34:58;;;;;;;9.27;5.97;;;;;;;;;;5021715;28;20273;-66
2022/04/13 01:37:24;;;;;;;10.73;6.03;;;;;;;;;;5024840;28;20711;-65
2022/04/13 01:39:49;;;;;;;10.50;6.10;;;;;;;;;;5022758;28;20667;-65
2022/04/13 01:42:15;;;;;;;9.95;6.43;;;;;;;;;;5023686;28;20593;-65
2022/04/13 01:44:43;;;;;;;8.95;5.47;;;;;;;;;;5026519;28;20201;-65
2022/04/13 01:47:09;;;;;;;11.00;6.63;;;;;;;;;;5021074;28;20191;-66
2022/04/13 01:49:36;;;;;;;13.60;6.13;;;;;;;;;;5019126;28;20178;-66
2022/04/13 01:52:02;;;;;;;13.48;6.88;;;;;;;;;;5022865;28;20179;-66
2022/04/13 01:54:27;;;;;;;10.65;6.40;;;;;;;;;;5024911;28;20194;-66
2022/04/13 01:56:52;;;;;;;9.15;6.18;;;;;;;;;;5024937;28;20533;-65
2022/04/13 01:59:18;;;;;;;13.02;6.35;;;;;;;;;;5023906;28;20206;-65
2022/04/13 02:01:44;;;;;;;8.70;6.13;;;;;;;;;;5024152;28;20316;-65
2022/04/13 02:04:20;;;;;;;16.08;5.93;;;;;;;;;;5020574;28;20220;-65
2022/04/13 02:06:47;;;;;;;15.15;6.35;;;;;;;;;;5021939;28;20275;-65
2022/04/13 02:09:12;;;;;;;9.10;5.97;;;;;;;;;;5022034;28;20193;-66
2022/04/13 02:11:38;;;;;;;14.55;6.40;;;;;;;;;;5025534;28;20222;-66
2022/04/13 02:14:04;;;;;;;10.55;6.57;;;;;;;;;;5027808;28;20244;-66
2022/04/13 02:16:29;;;;;;;12.40;6.47;;;;;;;;;;5026002;28;20272;-65
2022/04/13 02:18:54;;;;;;;10.73;6.88;;;;;;;;;;5025175;28;20178;-66
2022/04/13 02:21:20;;;;;;;11.45;6.68;;;;;;;;;;5018584;28;20191;-66
2022/04/13 02:23:46;;;;;;;10.63;6.85;;;;;;;;;;5019795;28;20233;-66
2022/04/13 02:26:12;;;;;;;15.80;6.43;;;;;;;;;;5026436;28;20190;-66
2022/04/13 02:28:37;;;;;;;9.15;6.35;;;;;;;;;;5028393;28;20209;-66
2022/04/13 02:31:03;;;;;;;9.55;6.53;;;;;;;;;;5020123;28;20206;-66
2022/04/13 02:33:31;;;;;;;9.20;6.45;;;;;;;;;;5022145;28;20276;-65
2022/04/13 02:35:57;;;;;;;9.20;6.03;;;;;;;;;;5027587;28;20182;-65
2022/04/13 02:38:23;;;;;;;9.43;5.63;;;;;;;;;;5027284;28;20193;-65
2022/04/13 02:40:48;;;;;;;9.98;6.28;;;;;;;;;;5024463;28;20263;-66
2022/04/13 02:43:13;;;;;;;14.45;6.47;;;;;;;;;;5027606;28;20265;-66
2022/04/13 02:45:38;;;;;;;10.52;6.35;;;;;;;;;;5028608;28;20178;-66
2022/04/13 02:48:04;;;;;;;12.50;6.68;;;;;;;;;;5029495;28;20208;-66
2022/04/13 02:50:29;;;;;;;11.80;6.35;;;;;;;;;;5016391;28;20281;-66
2022/04/13 02:52:56;;;;;;;13.18;6.50;;;;;;;;;;5023061;28;20179;-66
2022/04/13 02:55:22;;;;;;;11.73;6.05;;;;;;;;;;5015182;28;20193;-66
2022/04/13 02:57:47;;;;;;;11.38;6.22;;;;;;;;;;5027357;28;20540;-66
2022/04/13 03:00:13;;;;;;;14.30;6.40;;;;;;;;;;5021258;28;20233;-66
2022/04/13 03:02:40;;;;;;;12.65;6.22;;;;;;;;;;5016272;28;20216;-67
2022/04/13 03:05:05;;;;;;;17.65;6.57;;;;;;;;;;5028768;28;20273;-66
2022/04/13 03:07:32;;;;;;;12.95;6.85;;;;;;;;;;5025987;28;20316;-66
2022/04/13 03:09:58;;;;;;;11.77;6.28;;;;;;;;;;5024606;28;20248;-66
2022/04/13 03:12:24;;;;;;;11.20;6.18;;;;;;;;;;5012119;28;20348;-66
2022/04/13 03:14:50;;;;;;;11.07;6.93;;;;;;;;;;5016668;28;20190;-66
2022/04/13 03:17:16;;;;;;;14.73;6.72;;;;;;;;;;5026005;28;20198;-66
2022/04/13 03:19:41;;;;;;;13.50;5.82;;;;;;;;;;5017324;28;20198;-66
2022/04/13 03:22:06;;;;;;;18.10;6.43;;;;;;;;;;5017581;28;20269;-66
2022/04/13 03:24:34;;;;;;;10.45;6.03;;;;;;;;;;5015056;28;20186;-66
2022/04/13 03:26:59;;;;;;;11.90;6.40;;;;;;;;;;5018805;28;20178;-66
2022/04/13 03:29:25;;;;;;;18.00;7.15;;;;;;;;;;5025326;28;20556;-66
2022/04/13 03:31:50;;;;;;;12.90;6.30;;;;;;;;;;5014447;28;20212;-66
2022/04/13 03:34:20;;;;;;;10.55;5.97;;;;;;;;;;5020010;28;20661;-66
2022/04/13 03:36:49;;;;;;;9.93;5.88;;;;;;;;;;5027121;28;20186;-66
2022/04/13 03:39:15;;;;;;;11.82;6.38;;;;;;;;;;5021111;28;20643;-65
2022/04/13 03:41:40;;;;;;;11.30;6.15;;;;;;;;;;5010233;28;20575;-65
2022/04/13 03:44:06;;;;;;;9.63;5.55;;;;;;;;;;5017548;28;20238;-66
2022/04/13 03:46:32;;;;;;;11.02;6.68;;;;;;;;;;5025997;28;20465;-65
2022/04/13 03:48:58;;;;;;;9.68;6.45;;;;;;;;;;5020571;28;20187;-65
2022/04/13 03:51:23;;;;;;;14.68;7.13;;;;;;;;;;5024472;28;20192;-65
2022/04/13 03:53:49;;;;;;;10.27;6.00;;;;;;;;;;5026118;28;20502;-66
2022/04/13 03:56:14;;;;;;;12.77;6.60;;;;;;;;;;5012855;28;20605;-65
2022/04/13 03:58:43;;;;;;;11.30;6.35;;;;;;;;;;5028391;28;20180;-65
2022/04/13 04:01:10;;;;;;;9.20;5.57;;;;;;;;;;5020864;28;20684;-65
2022/04/13 04:03:35;;;;;;;11.70;6.30;;;;;;;;;;5025599;28;20196;-65
2022/04/13 04:06:01;;;;;;;9.40;6.20;;;;;;;;;;5019582;28;20261;-65
2022/04/13 04:08:27;;;;;;;11.10;6.90;;;;;;;;;;5028314;28;20224;-65
2022/04/13 04:10:53;;;;;;;15.18;6.50;;;;;;;;;;5021889;28;20254;-65
2022/04/13 04:13:19;;;;;;;15.25;6.72;;;;;;;;;;5021014;28;20229;-65
2022/04/13 04:15:45;;;;;;;13.88;6.22;;;;;;;;;;5020842;28;20249;-65
2022/04/13 04:18:10;;;;;;;16.63;6.80;;;;;;;;;;5019313;28;20182;-66
2022/04/13 04:20:35;;;;;;;12.65;6.78;;;;;;;;;;5025460;28;20225;-66
2022/04/13 04:23:01;;;;;;;12.38;6.65;;;;;;;;;;5026233;28;20269;-66
2022/04/13 04:25:26;;;;;;;12.85;6.15;;;;;;;;;;5024128;28;20273;-66
2022/04/13 04:27:51;;;;;;;13.88;6.88;;;;;;;;;;5025728;28;20264;-66
2022/04/13 04:30:17;;;;;;;11.35;6.47;;;;;;;;;;5021065;28;20590;-66
2022/04/13 04:32:42;;;;;;;12.65;6.50;;;;;;;;;;5016921;28;20186;-66
2022/04/13 04:35:08;;;;;;;12.75;7.07;;;;;;;;;;5021795;28;20189;-66
2022/04/13 04:37:34;;;;;;;8.90;5.82;;;;;;;;;;5024567;28;20646;-66
2022/04/13 04:39:59;;;;;;;9.30;6.78;;;;;;;;;;5024571;28;20202;-66
2022/04/13 04:42:26;;;;;;;14.48;6.68;;;;;;;;;;5025396;28;20185;-66
2022/04/13 04:44:58;;;;;;;10.50;6.50;;;;;;;;;;5025805;28;20189;-66
2022/04/13 04:47:24;;;;;;;11.38;6.53;;;;;;;;;;5019417;28;20522;-66
2022/04/13 04:49:50;;;;;;;14.57;6.93;;;;;;;;;;5021221;28;20237;-66
2022/04/13 04:52:15;;;;;;;10.15;6.40;;;;;;;;;;5018851;28;20182;-66
2022/04/13 04:54:41;;;;;;;9.27;6.13;;;;;;;;;;5022171;28;20265;-65
2022/04/13 04:57:08;;;;;;;11.15;6.43;;;;;;;;;;5024211;28;20184;-67
2022/04/13 04:59:33;;;;;;;12.13;6.60;;;;;;;;;;5024797;28;20556;-66
2022/04/13 05:01:59;;;;;;;10.23;6.43;;;;;;;;;;5021319;28;20186;-65
2022/04/13 05:04:24;;;;;;;10.43;6.80;;;;;;;;;;5019003;28;20525;-65
2022/04/13 05:06:49;;;;;;;11.93;6.63;;;;;;;;;;5020105;28;20193;-65
2022/04/13 05:09:17;;;;;;;15.27;7.10;;;;;;;;;;5026136;28;20190;-65
2022/04/13 05:11:43;;;;;;;12.48;6.78;;;;;;;;;;5014894;28;20258;-65
2022/04/13 05:14:08;;;;;;;13.30;6.85;;;;;;;;;;5010527;28;20233;-65
2022/04/13 05:16:34;;;;;;;12.70;7.03;;;;;;;;;;5017370;28;20187;-65
2022/04/13 05:19:00;;;;;;;11.57;6.40;;;;;;;;;;5024582;28;20178;-65
2022/04/13 05:21:25;;;;;;;12.40;6.35;;;;;;;;;;5024774;28;20553;-65
2022/04/13 05:23:50;;;;;;;14.85;6.97;;;;;;;;;;5023684;28;20276;-66
2022/04/13 05:26:18;;;;;;;10.00;6.95;;;;;;;;;;5020754;28;20190;-65
2022/04/13 05:28:45;;;;;;;14.38;6.57;;;;;;;;;;5024791;28;20182;-66
2022/04/13 05:31:10;;;;;;;11.45;6.78;;;;;;;;;;5017646;28;20238;-67
2022/04/13 05:33:36;;;;;;;16.15;6.82;;;;;;;;;;5016436;28;20183;-66
2022/04/13 05:36:02;;;;;;;9.55;6.13;;;;;;;;;;5015117;28;20216;-66
2022/04/13 05:38:28;;;;;;;12.75;7.25;;;;;;;;;;5019690;28;20665;-66
2022/04/13 05:40:53;;;;;;;11.77;6.97;;;;;;;;;;5015500;28;20195;-66
2022/04/13 05:43:18;;;;;;;12.32;6.55;;;;;;;;;;5018417;28;20229;-66
2022/04/13 05:45:44;;;;;;;16.25;6.70;;;;;;;;;;5018075;28;20174;-66
2022/04/13 05:48:09;;;;;;;10.73;6.40;;;;;;;;;;5030381;28;20185;-66
2022/04/13 05:50:35;;;;;;;11.00;7.00;;;;;;;;;;5026391;28;20205;-66
2022/04/13 05:53:00;;;;;;;14.13;7.55;;;;;;;;;;5025846;28;20218;-66
2022/04/13 05:55:25;;;;;;;11.32;7.18;;;;;;;;;;5029266;28;20182;-66
2022/04/13 05:57:51;;;;;;;13.77;7.50;;;;;;;;;;5024355;28;20191;-66
2022/04/13 06:00:17;;;;;;;14.38;7.00;;;;;;;;;;5026477;28;20838;-66
2022/04/13 06:02:43;;;;;;;16.23;7.70;;;;;;;;;;5024227;28;20563;-66
2022/04/13 06:05:09;;;;;;;17.52;7.55;;;;;;;;;;5024391;28;20201;-65
2022/04/13 06:07:35;;;;;;;10.60;6.70;;;;;;;;;;5021257;28;20174;-66
2022/04/13 06:10:02;;;;;;;16.83;6.60;;;;;;;;;;5030090;28;20189;-66
2022/04/13 06:12:28;;;;;;;11.57;7.25;;;;;;;;;;5025032;28;20276;-65
2022/04/13 06:15:20;;;;;;;20.70;7.63;;;;;;;;;;5028762;28;20178;-66
2022/04/13 06:17:45;;;;;;;17.85;8.00;;;;;;;;;;5025106;28;20194;-66
2022/04/13 06:20:14;;;;;;;14.88;7.15;;;;;;;;;;5027699;28;20690;-65
2022/04/13 06:22:41;;;;;;;15.80;6.85;;;;;;;;;;5027261;28;20194;-66
2022/04/13 06:25:09;;;;;;;15.95;7.28;;;;;;;;;;5028526;28;20181;-66
2022/04/13 06:27:34;;;;;;;13.15;7.43;;;;;;;;;;5026668;28;20668;-66
2022/04/13 06:30:00;;;;;;;13.35;6.68;;;;;;;;;;5028256;28;20170;-66
2022/04/13 06:32:36;;;;;;;16.63;8.15;;;;;;;;;;5027349;28;20202;-66
2022/04/13 06:35:04;;;;;;;17.10;7.22;;;;;;;;;;5027921;28;20209;-66
2022/04/13 06:37:29;;;;;;;11.15;7.03;;;;;;;;;;5027981;28;20182;-66
2022/04/13 06:39:55;;;;;;;17.55;7.20;;;;;;;;;;5029196;28;20198;-66
2022/04/13 06:42:22;;;;;;;13.23;7.65;;;;;;;;;;5028120;28;20244;-66
2022/04/13 06:44:49;;;;;;;15.27;6.97;;;;;;;;;;5029228;28;20566;-66
2022/04/13 06:47:14;;;;;;;16.38;7.20;;;;;;;;;;5017394;28;20200;-66
2022/04/13 06:49:40;;;;;;;11.02;7.25;;;;;;;;;;5029622;28;20324;-66
2022/04/13 06:52:05;;;;;;;12.38;6.75;;;;;;;;;;5027126;28;20674;-66
2022/04/13 06:54:30;;;;;;;12.25;6.70;;;;;;;;;;5029449;28;20179;-66
2022/04/13 06:56:56;;;;;;;16.15;6.90;;;;;;;;;;5028650;28;20183;-65
2022/04/13 06:59:22;;;;;;;18.80;7.25;;;;;;;;;;5027866;28;20182;-65
2022/04/13 07:01:47;;;;;;;16.08;6.20;;;;;;;;;;5029256;28;20178;-66
2022/04/13 07:04:12;;;;;;;12.13;5.65;;;;;;;;;;5028252;28;20265;-65
2022/04/13 07:06:38;;;;;;;15.20;6.60;;;;;;;;;;5025957;28;20525;-66
2022/04/13 07:09:03;;;;;;;13.90;6.00;;;;;;;;;;5028791;28;20184;-66
2022/04/13 07:11:29;;;;;;;11.25;6.13;;;;;;;;;;5026434;28;20581;-66
2022/04/13 07:13:55;;;;;;;13.00;6.40;;;;;;;;;;5028159;28;20194;-66
2022/04/13 07:16:20;;;;;;;16.80;6.60;;;;;;;;;;5024525;28;20190;-65
2022/04/13 07:18:45;;;;;;;9.98;5.45;;;;;;;;;;5026324;28;20178;-66
2022/04/13 07:21:11;;;;;;;12.55;5.45;;;;;;;;;;5026207;28;20222;-66
2022/04/13 07:23:36;;;;;;;11.68;5.60;;;;;;;;;;5026735;28;20653;-65
2022/04/13 07:26:01;;;;;;;15.20;5.93;;;;;;;;;;5028038;28;20716;-65
2022/04/13 07:28:27;;;;;;;9.45;5.38;;;;;;;;;;5023866;28;20186;-66
2022/04/13 07:30:52;;;;;;;12.65;6.40;;;;;;;;;;5027645;28;20205;-66
2022/04/13 07:33:18;;;;;;;13.70;5.88;;;;;;;;;;5020239;28;20190;-66
2022/04/13 07:35:43;;;;;;;15.50;6.93;;;;;;;;;;5018590;28;20190;-66
2022/04/13 07:38:09;;;;;;;12.48;6.43;;;;;;;;;;5024531;28;20214;-66
2022/04/13 07:40:34;;;;;;;10.60;6.55;;;;;;;;;;5026306;28;20197;-66
2022/04/13 07:42:59;;;;;;;12.20;6.40;;;;;;;;;;5026619;28;20255;-65
2022/04/13 07:45:25;;;;;;;12.68;6.72;;;;;;;;;;5026364;28;20613;-65
2022/04/13 07:47:50;;;;;;;11.32;5.72;;;;;;;;;;5026465;28;20182;-65
2022/04/13 07:50:15;;;;;;;11.02;6.32;;;;;;;;;;5028546;28;20170;-66
2022/04/13 07:52:42;;;;;;;11.45;5.38;;;;;;;;;;5026359;28;20212;-65
2022/04/13 07:55:09;;;;;;;10.77;5.65;;;;;;;;;;5029222;28;20447;-66
2022/04/13 07:57:39;;;;;;;8.98;5.55;;;;;;;;;;5026649;28;20193;-66
2022/04/13 08:00:06;;;;;;;11.88;5.35;;;;;;;;;;5027496;28;20193;-66
2022/04/13 08:02:34;;;;;;;9.30;5.35;;;;;;;;;;5027642;28;20178;-66
2022/04/13 08:04:59;;;;;;;13.65;5.88;;;;;;;;;;5027034;28;20170;-66
2022/04/13 08:07:25;;;;;;;14.85;6.38;;;;;;;;;;5018561;28;20191;-66
2022/04/13 08:09:51;;;;;;;13.48;6.65;;;;;;;;;;5023231;28;20209;-66
2022/04/13 08:12:17;;;;;;;11.30;5.97;;;;;;;;;;5019338;28;20234;-66
2022/04/13 08:14:46;;;;;;;15.65;6.13;;;;;;;;;;5021439;28;20182;-66
2022/04/13 08:17:12;;;;;;;10.52;5.63;;;;;;;;;;5020798;28;20580;-66
2022/04/13 08:19:37;;;;;;;10.65;6.97;;;;;;;;;;5021469;28;20237;-67
2022/04/13 08:22:03;;;;;;;12.50;5.60;;;;;;;;;;5027823;28;20240;-66
2022/04/13 08:24:29;;;;;;;8.73;5.30;;;;;;;;;;5028169;28;20170;-66
2022/04/13 08:26:54;;;;;;;8.13;4.53;;;;;;;;;;5027522;28;20698;-67
2022/04/13 08:29:20;;;;;;;9.20;3.80;;;;;;;;;;5027769;28;20170;-66
2022/04/13 08:31:45;;;;;;;8.48;4.90;;;;;;;;;;5025725;28;20198;-65
2022/04/13 08:34:10;;;;;;;6.38;4.13;;;;;;;;;;5019330;28;20313;-66
2022/04/13 08:36:36;;;;;;;8.40;3.95;;;;;;;;;;5024999;28;20304;-67
2022/04/13 08:39:01;;;;;;;7.13;3.72;;;;;;;;;;5026592;28;20178;-66
2022/04/13 08:41:40;;;;;;;8.60;3.40;;;;;;;;;;5027698;28;20233;-66
2022/04/13 08:44:22;;;;;;;6.53;3.00;;;;;;;;;;5027196;28;20646;-67
2022/04/13 08:46:49;;;;;;;8.52;3.60;;;;;;;;;;5026864;28;20193;-67
2022/04/13 08:49:15;;;;;;;7.90;3.50;;;;;;;;;;5026006;28;20240;-66
2022/04/13 08:51:40;;;;;;;8.25;3.22;;;;;;;;;;5027199;28;20217;-66
2022/04/13 08:54:22;;;;;;;5.53;3.15;;;;;;;;;;5023881;28;20543;-67
2022/04/13 08:56:48;;;;;;;7.63;3.05;;;;;;;;;;5020366;28;20664;-66
2022/04/13 08:59:38;;;;;;;7.05;3.00;;;;;;;;;;5016763;28;20641;-66
2022/04/13 09:02:32;;;;;;;6.07;3.08;;;;;;;;;;5024791;28;20190;-68
2022/04/13 09:05:00;;;;;;;6.63;3.33;;;;;;;;;;5020684;28;20229;-65
2022/04/13 09:07:31;;;;;;;7.00;3.38;;;;;;;;;;5018919;28;20184;-66
2022/04/13 09:10:00;;;;;;;6.50;3.72;;;;;;;;;;5025586;28;20174;-66
2022/04/13 09:12:30;;;;;;;7.03;4.20;;;;;;;;;;5025575;28;20223;-66
2022/04/13 09:14:57;;;;;;;5.88;3.90;;;;;;;;;;5013618;28;20653;-66
2022/04/13 09:17:24;;;;;;;5.00;3.63;;;;;;;;;;5027729;28;20669;-67
2022/04/13 09:19:50;;;;;;;10.48;4.30;;;;;;;;;;5029478;28;20691;-67
2022/04/13 09:22:17;;;;;;;10.30;3.58;;;;;;;;;;5027824;28;20190;-67
2022/04/13 09:24:44;;;;;;;8.70;4.05;;;;;;;;;;5025234;28;20264;-66
2022/04/13 09:27:10;;;;;;;5.57;3.72;;;;;;;;;;5024572;28;20179;-67
2022/04/13 09:29:37;;;;;;;7.05;4.00;;;;;;;;;;5031969;28;20178;-67
2022/04/13 09:32:02;;;;;;;7.68;3.60;;;;;;;;;;5029695;28;20201;-67
2022/04/13 09:34:27;;;;;;;9.63;4.30;;;;;;;;;;5031914;28;20534;-66
2022/04/13 09:36:55;;;;;;;8.15;4.32;;;;;;;;;;5029568;28;20409;-66
2022/04/13 09:39:21;;;;;;;13.30;4.80;;;;;;;;;;5020062;28;20182;-67
2022/04/13 09:41:46;;;;;;;7.97;4.32;;;;;;;;;;5030390;28;20560;-67
2022/04/13 09:44:15;;;;;;;8.60;4.90;;;;;;;;;;5022469;28;20193;-67
2022/04/13 09:46:43;;;;;;;6.85;4.63;;;;;;;;;;5021457;28;20182;-66
2022/04/13 09:49:20;;;;;;;8.85;5.00;;;;;;;;;;5028803;28;20383;-66
2022/04/13 09:51:50;;;;;;;8.63;4.97;;;;;;;;;;5022007;28;20221;-67
2022/04/13 09:54:16;;;;;;;9.05;5.18;;;;;;;;;;5013567;28;20209;-66
2022/04/13 09:56:49;;;;;;;6.40;4.20;;;;;;;;;;5031075;28;20583;-66
2022/04/13 09:59:28;;;;;;;9.75;4.57;;;;;;;;;;5029823;28;20182;-67
2022/04/13 10:01:54;;;;;;;9.18;5.00;;;;;;;;;;5030510;28;20225;-67
2022/04/13 10:04:24;;;;;;;8.45;5.03;;;;;;;;;;5028827;28;20187;-66
2022/04/13 10:06:49;;;;;;;8.93;5.28;;;;;;;;;;5026187;28;20209;-66
2022/04/13 10:09:15;;;;;;;8.05;4.90;;;;;;;;;;5029361;28;20210;-66
2022/04/13 10:11:58;;;;;;;11.93;5.63;;;;;;;;;;5013315;28;20228;-66
2022/04/13 10:14:23;;;;;;;9.43;4.30;;;;;;;;;;5023105;28;20182;-67
2022/04/13 10:16:51;;;;;;;9.55;4.45;;;;;;;;;;5024530;28;20173;-67
2022/04/13 10:19:20;;;;;;;11.05;4.72;;;;;;;;;;5019148;28;20807;-67
2022/04/13 10:21:47;;;;;;;7.63;4.03;;;;;;;;;;5027347;28;20202;-67
2022/04/13 10:24:21;;;;;;;10.48;5.00;;;;;;;;;;5024215;28;20732;-67
2022/04/13 10:27:07;;;;;;;10.27;4.95;;;;;;;;;;5028777;28;20193;-67
2022/04/13 10:29:40;;;;;;;5.80;4.10;;;;;;;;;;5023405;28;20633;-66
2022/04/13 10:32:22;;;;;;;10.02;4.65;;;;;;;;;;5024210;28;20237;-67
2022/04/13 10:34:49;;;;;;;6.38;4.15;;;;;;;;;;5023543;28;20625;-67
2022/04/13 10:37:17;;;;;;;9.10;4.35;;;;;;;;;;5015665;28;20186;-66
2022/04/13 10:39:45;;;;;;;8.63;4.60;;;;;;;;;;5021786;28;20645;-66
2022/04/13 10:42:12;;;;;;;8.93;4.15;;;;;;;;;;5029501;28;20587;-67
2022/04/13 10:45:01;;;;;;;9.20;4.43;;;;;;;;;;5024853;28;20599;-67
2022/04/13 10:47:58;;;;;;;10.25;4.75;;;;;;;;;;5022018;28;20202;-66
2022/04/13 10:50:48;;;;;;;9.35;5.05;;;;;;;;;;5022305;28;20647;-67
2022/04/13 10:53:20;;;;;;;8.32;4.60;;;;;;;;;;5018300;28;20195;-66
2022/04/13 10:55:55;;;;;;;6.55;4.47;;;;;;;;;;5023813;28;20260;-66
2022/04/13 10:58:24;;;;;;;8.23;4.88;;;;;;;;;;5022421;28;20190;-66
2022/04/13 11:00:56;;;;;;;7.85;4.95;;;;;;;;;;5029232;28;20746;-66
2022/04/13 11:03:25;;;;;;;10.63;5.25;;;;;;;;;;5028806;28;20186;-66
2022/04/13 11:05:50;;;;;;;8.30;3.45;;;;;;;;;;5029818;28;20182;-66
2022/04/13 11:08:23;;;;;;;6.00;2.92;;;;;;;;;;5027453;28;20665;-66
2022/04/13 11:10:50;;;;;;;4.68;2.67;;;;;;;;;;5029899;28;20301;-66
2022/04/13 11:13:17;;;;;;;8.65;3.25;;;;;;;;;;5025601;28;20190;-66
2022/04/13 11:15:45;;;;;;;8.13;3.55;;;;;;;;;;5029973;28;20174;-66
2022/04/13 11:18:13;;;;;;;9.38;3.78;;;;;;;;;;5026721;28;20183;-68
2022/04/13 11:20:58;;;;;;;6.25;3.83;;;;;;;;;;5015804;28;20240;-67
2022/04/13 11:23:44;;;;;;;9.15;3.70;;;;;;;;;;5023352;28;20190;-67
2022/04/13 11:26:10;;;;;;;13.68;4.00;;;;;;;;;;5027670;28;20174;-67
2022/04/13 11:28:36;;;;;;;11.10;4.25;;;;;;;;;;5027760;28;20546;-67
2022/04/13 11:31:02;;;;;;;5.85;3.83;;;;;;;;;;5016818;28;20628;-67
2022/04/13 11:33:57;;;;;;;6.65;3.60;;;;;;;;;;5028278;28;20212;-67
2022/04/13 11:36:27;;;;;;;11.18;4.10;;;;;;;;;;5026304;28;20190;-66
2022/04/13 11:38:53;;;;;;;5.97;3.88;;;;;;;;;;5028776;28;20216;-66
2022/04/13 11:41:20;;;;;;;7.15;3.78;;;;;;;;;;5027366;28;20721;-67
2022/04/13 11:43:46;;;;;;;7.82;4.00;;;;;;;;;;5023626;28;20555;-66
2022/04/13 11:46:35;;;;;;;10.38;4.13;;;;;;;;;;5018760;28;20189;-66
2022/04/13 11:49:01;;;;;;;5.97;3.85;;;;;;;;;;5024528;28;20186;-67
2022/04/13 11:51:30;;;;;;;7.35;4.43;;;;;;;;;;5028685;28;20181;-66
2022/04/13 11:54:10;;;;;;;5.88;4.40;;;;;;;;;;5027962;28;20278;-66
2022/04/13 11:56:39;;;;;;;9.27;4.60;;;;;;;;;;5027049;28;20174;-67
2022/04/13 11:59:05;;;;;;;9.85;4.03;;;;;;;;;;5020378;28;20178;-66
2022/04/13 12:01:33;;;;;;;7.85;4.03;;;;;;;;;;5029072;28;20193;-67
2022/04/13 12:04:03;;;;;;;7.18;4.15;;;;;;;;;;5027792;28;20178;-67
2022/04/13 12:06:30;;;;;;;6.43;3.60;;;;;;;;;;5028656;28;20231;-66
2022/04/13 12:08:58;;;;;;;7.65;3.58;;;;;;;;;;5019315;28;20248;-66
2022/04/13 12:11:49;;;;;;;7.97;3.20;;;;;;;;;;5022373;28;20316;-66
2022/04/13 12:14:36;;;;;;;9.52;4.07;;;;;;;;;;5018924;28;20679;-66
2022/04/13 12:17:02;;;;;;;7.25;3.70;;;;;;;;;;5009862;28;20189;-66
2022/04/13 12:19:44;;;;;;;5.30;3.17;;;;;;;;;;5021001;28;20179;-68
2022/04/13 12:22:20;;;;;;;8.07;3.58;;;;;;;;;;5014612;28;20189;-66
2022/04/13 12:25:07;;;;;;;8.48;3.92;;;;;;;;;;5029132;28;20625;-67
2022/04/13 12:27:32;;;;;;;7.50;4.03;;;;;;;;;;5025608;28;20663;-67
2022/04/13 12:30:16;;;;;;;7.53;4.05;;;;;;;;;;5025961;28;20205;-66
2022/04/13 12:32:45;;;;;;;8.88;4.10;;;;;;;;;;5027273;28;20225;-67
2022/04/13 12:35:11;;;;;;;8.73;4.28;;;;;;;;;;5024847;28;20244;-67
2022/04/13 12:37:36;;;;;;;11.48;4.68;;;;;;;;;;5019436;28;20548;-67
2022/04/13 12:40:19;;;;;;;8.52;4.53;;;;;;;;;;5020618;28;20626;-67
2022/04/13 12:42:44;;;;;;;8.00;4.80;;;;;;;;;;5027885;28;20204;-67
2022/04/13 12:45:12;;;;;;;8.63;4.38;;;;;;;;;;5026831;28;20760;-67
2022/04/13 12:47:44;;;;;;;8.18;4.25;;;;;;;;;;5022666;28;20195;-67
2022/04/13 12:50:10;;;;;;;11.30;5.00;;;;;;;;;;5026923;28;20247;-67
2022/04/13 12:52:35;;;;;;;8.07;4.82;;;;;;;;;;5027216;28;20174;-66
2022/04/13 12:55:02;;;;;;;9.10;5.13;;;;;;;;;;5027225;28;20586;-67
2022/04/13 12:57:28;;;;;;;11.60;5.05;;;;;;;;;;5023709;28;20182;-66
2022/04/13 12:59:53;;;;;;;11.48;6.30;;;;;;;;;;5025266;28;20615;-66
2022/04/13 13:02:20;;;;;;;11.85;5.82;;;;;;;;;;5021236;28;20317;-66
2022/04/13 13:04:47;;;;;;;10.25;5.28;;;;;;;;;;5026793;28;20179;-67
2022/04/13 13:07:13;;;;;;;10.32;6.00;;;;;;;;;;5025481;28;20192;-67
2022/04/13 13:09:39;;;;;;;10.70;5.65;;;;;;;;;;5022782;28;20186;-67
2022/04/13 13:12:17;;;;;;;10.05;5.90;;;;;;;;;;5026006;28;20236;-67
2022/04/13 13:14:46;;;;;;;10.65;5.57;;;;;;;;;;5019509;28;20186;-66
2022/04/13 13:17:17;;;;;;;8.70;5.55;;;;;;;;;;5026415;28;20186;-67
2022/04/13 13:19:43;;;;;;;11.23;5.28;;;;;;;;;;5021823;28;20658;-67
2022/04/13 13:22:24;;;;;;;9.40;5.38;;;;;;;;;;5023862;28;20178;-67
2022/04/13 13:24:56;;;;;;;13.40;5.15;;;;;;;;;;5024783;28;20245;-67
2022/04/13 13:27:34;;;;;;;7.43;3.97;;;;;;;;;;5021801;28;20177;-68
2022/04/13 13:30:08;;;;;;;14.10;5.47;;;;;;;;;;5024603;28;20573;-67
2022/04/13 13:32:37;;;;;;;7.50;4.18;;;;;;;;;;5024924;28;20601;-68
2022/04/13 13:35:06;;;;;;;7.95;4.38;;;;;;;;;;5024809;28;20518;-66
2022/04/13 13:37:39;;;;;;;7.30;4.38;;;;;;;;;;5023575;28;20175;-67
2022/04/13 13:40:05;;;;;;;8.80;4.32;;;;;;;;;;5024012;28;20206;-67
2022/04/13 13:42:41;;;;;;;6.93;4.00;;;;;;;;;;5025410;28;20309;-67
2022/04/13 13:45:17;;;;;;;7.93;4.47;;;;;;;;;;5024715;28;20228;-67
2022/04/13 13:47:43;;;;;;;8.18;4.93;;;;;;;;;;5026884;28;20486;-66
2022/04/13 13:50:09;;;;;;;11.60;5.47;;;;;;;;;;5025009;28;20185;-67
2022/04/13 13:52:35;;;;;;;8.82;4.75;;;;;;;;;;5025752;28;20328;-66
2022/04/13 13:55:00;;;;;;;8.27;5.43;;;;;;;;;;5025527;28;20392;-67
2022/04/13 13:57:26;;;;;;;7.32;4.95;;;;;;;;;;5025983;28;20687;-66
2022/04/13 13:59:51;;;;;;;9.85;4.95;;;;;;;;;;5026906;28;20194;-66
2022/04/13 14:02:16;;;;;;;9.45;5.43;;;;;;;;;;5024341;28;20290;-67
2022/04/13 14:04:42;;;;;;;12.25;5.35;;;;;;;;;;5025032;28;20182;-66
2022/04/13 14:07:07;;;;;;;13.43;5.47;;;;;;;;;;5027893;28;20182;-67
2022/04/13 14:09:32;;;;;;;9.68;5.07;;;;;;;;;;5030448;28;20189;-67
2022/04/13 14:11:58;;;;;;;10.32;4.47;;;;;;;;;;5029618;28;20217;-67
2022/04/13 14:14:24;;;;;;;8.98;4.18;;;;;;;;;;5024729;28;20226;-66
2022/04/13 14:16:50;;;;;;;8.90;4.28;;;;;;;;;;5029086;28;20177;-66
2022/04/13 14:19:16;;;;;;;10.13;4.30;;;;;;;;;;5020095;28;20604;-66
2022/04/13 14:21:41;;;;;;;9.55;4.22;;;;;;;;;;5026934;28;20205;-66
2022/04/13 14:24:07;;;;;;;14.20;7.60;;;;;;;;;;5016857;28;20960;-67
2022/04/13 14:26:32;;;;;;;9.18;3.88;;;;;;;;;;5025858;28;20186;-67
2022/04/13 14:28:58;;;;;;;10.10;3.97;;;;;;;;;;5023918;28;20654;-67
2022/04/13 14:31:23;;;;;;;9.20;3.60;;;;;;;;;;5031209;28;20237;-66
2022/04/13 14:33:48;;;;;;;11.02;4.05;;;;;;;;;;5022167;28;20549;-67
2022/04/13 14:36:14;;;;;;;7.00;3.35;;;;;;;;;;5020799;28;20272;-67
2022/04/13 14:38:39;;;;;;;8.60;3.60;;;;;;;;;;5027595;28;20192;-66
2022/04/13 14:41:05;;;;;;;8.50;3.28;;;;;;;;;;5023998;28;20189;-66